SPQU/AQP METAR and TAF weather

Enter ICAO airport designator
Station Type Date Time Source
SPQU METAR 2019/06/18 15:00 UTC NOAA

SPQU 181500Z 27007KT CAVOK 23/M07 Q1027 RMK PP000


Station Type Date Time Source
SPQU Decoded METAR 2019/06/18 15:00 UTC NOAA

Arequipa, Peru (SPQU) 16-19S 071-33W 2539M
Jun 18, 2019 - 11:00 AM EDT / 2019.06.18 1500 UTC
Wind: from the W (270 degrees) at 8 MPH (7 KT):0
Visibility: greater than 7 mile(s):0
Temperature: 73 F (23 C)
Dew Point: 19 F (-7 C)
Relative Humidity: 12%
Pressure (altimeter): 30.33 in. Hg (1027 hPa)
ob: SPQU 181500Z 27007KT CAVOK 23/M07 Q1027 RMK PP000
cycle: 15

Station Type Date Time Source
SPQU TAF 2019/06/18 13:57 UTC NOAA

TAF
AMD SPQU 181300Z 1813/1912 05010KT 6000 NSC TX22/1817Z TN10/1910Z
TEMPO 1813/1815 07016KT 3500 DU NSC
BECMG 1815/1818 27010KT CAVOK
BECMG 1823/1901 06005KT

Example: see airport list